sensor_id;sensor_type;location;lat;lon;timestamp;P1;durP1;ratioP1;P2;durP2;ratioP2
30080;SDS011;16902;50.816;12.828;2022-07-06T00:00:06;6.88;;;6.22;;
30080;SDS011;16902;50.816;12.828;2022-07-06T00:05:08;7.20;;;6.50;;
30080;SDS011;16902;50.816;12.828;2022-07-06T00:10:10;7.10;;;6.03;;
30080;SDS011;16902;50.816;12.828;2022-07-06T00:15:12;7.45;;;6.85;;
30080;SDS011;16902;50.816;12.828;2022-07-06T00:20:14;7.40;;;6.80;;
30080;SDS011;16902;50.816;12.828;2022-07-06T00:25:16;6.80;;;6.20;;
30080;SDS011;16902;50.816;12.828;2022-07-06T00:30:17;6.82;;;6.18;;
30080;SDS011;16902;50.816;12.828;2022-07-06T00:35:19;7.43;;;6.78;;
30080;SDS011;16902;50.816;12.828;2022-07-06T00:40:24;6.63;;;6.03;;
30080;SDS011;16902;50.816;12.828;2022-07-06T00:45:26;7.43;;;6.70;;
30080;SDS011;16902;50.816;12.828;2022-07-06T00:50:28;7.47;;;6.78;;
30080;SDS011;16902;50.816;12.828;2022-07-06T00:55:31;7.07;;;6.47;;
30080;SDS011;16902;50.816;12.828;2022-07-06T01:00:35;7.45;;;6.65;;
30080;SDS011;16902;50.816;12.828;2022-07-06T01:05:38;10.02;;;9.13;;
30080;SDS011;16902;50.816;12.828;2022-07-06T01:10:40;9.00;;;8.20;;
30080;SDS011;16902;50.816;12.828;2022-07-06T01:15:42;9.07;;;8.23;;
30080;SDS011;16902;50.816;12.828;2022-07-06T01:20:44;8.35;;;7.65;;
30080;SDS011;16902;50.816;12.828;2022-07-06T01:25:46;8.27;;;7.68;;
30080;SDS011;16902;50.816;12.828;2022-07-06T01:30:48;8.40;;;7.60;;
30080;SDS011;16902;50.816;12.828;2022-07-06T01:35:52;8.38;;;7.68;;
30080;SDS011;16902;50.816;12.828;2022-07-06T01:40:54;7.57;;;6.88;;
30080;SDS011;16902;50.816;12.828;2022-07-06T01:45:56;7.10;;;6.50;;
30080;SDS011;16902;50.816;12.828;2022-07-06T01:50:58;8.38;;;7.50;;
30080;SDS011;16902;50.816;12.828;2022-07-06T01:56:00;7.13;;;6.63;;
30080;SDS011;16902;50.816;12.828;2022-07-06T02:01:07;7.75;;;7.05;;
30080;SDS011;16902;50.816;12.828;2022-07-06T02:06:13;8.38;;;7.63;;
30080;SDS011;16902;50.816;12.828;2022-07-06T02:11:16;8.10;;;6.60;;
30080;SDS011;16902;50.816;12.828;2022-07-06T02:16:18;7.47;;;6.78;;
30080;SDS011;16902;50.816;12.828;2022-07-06T02:21:21;7.93;;;6.78;;
30080;SDS011;16902;50.816;12.828;2022-07-06T02:26:23;9.73;;;7.72;;
30080;SDS011;16902;50.816;12.828;2022-07-06T02:31:25;7.13;;;6.55;;
30080;SDS011;16902;50.816;12.828;2022-07-06T02:36:27;7.75;;;7.10;;
30080;SDS011;16902;50.816;12.828;2022-07-06T02:41:29;7.30;;;6.60;;
30080;SDS011;16902;50.816;12.828;2022-07-06T02:46:31;8.45;;;7.47;;
30080;SDS011;16902;50.816;12.828;2022-07-06T02:51:34;8.35;;;7.65;;
30080;SDS011;16902;50.816;12.828;2022-07-06T02:56:35;7.82;;;7.13;;
30080;SDS011;16902;50.816;12.828;2022-07-06T03:01:38;8.45;;;7.68;;
30080;SDS011;16902;50.816;12.828;2022-07-06T03:06:40;9.02;;;8.20;;
30080;SDS011;16902;50.816;12.828;2022-07-06T03:11:43;9.02;;;8.18;;
30080;SDS011;16902;50.816;12.828;2022-07-06T03:16:45;8.70;;;7.90;;
30080;SDS011;16902;50.816;12.828;2022-07-06T03:21:52;8.43;;;7.63;;
30080;SDS011;16902;50.816;12.828;2022-07-06T03:26:54;9.13;;;8.38;;
30080;SDS011;16902;50.816;12.828;2022-07-06T03:31:56;8.25;;;7.45;;
30080;SDS011;16902;50.816;12.828;2022-07-06T03:36:59;8.68;;;7.88;;
30080;SDS011;16902;50.816;12.828;2022-07-06T03:42:01;7.68;;;7.07;;
30080;SDS011;16902;50.816;12.828;2022-07-06T03:47:04;7.78;;;7.15;;
30080;SDS011;16902;50.816;12.828;2022-07-06T03:52:07;8.50;;;7.72;;
30080;SDS011;16902;50.816;12.828;2022-07-06T03:57:16;9.90;;;8.40;;
30080;SDS011;16902;50.816;12.828;2022-07-06T04:02:18;10.30;;;9.30;;
30080;SDS011;16902;50.816;12.828;2022-07-06T04:07:24;9.13;;;8.23;;
30080;SDS011;16902;50.816;12.828;2022-07-06T04:12:27;9.25;;;8.38;;
30080;SDS011;16902;50.816;12.828;2022-07-06T04:17:29;11.98;;;10.93;;
30080;SDS011;16902;50.816;12.828;2022-07-06T04:22:50;12.07;;;10.40;;
30080;SDS011;16902;50.816;12.828;2022-07-06T04:27:55;14.13;;;10.40;;
30080;SDS011;16902;50.816;12.828;2022-07-06T04:32:57;11.85;;;9.95;;
30080;SDS011;16902;50.816;12.828;2022-07-06T04:38:02;10.45;;;9.45;;
30080;SDS011;16902;50.816;12.828;2022-07-06T04:43:04;11.70;;;10.50;;
30080;SDS011;16902;50.816;12.828;2022-07-06T04:48:07;10.07;;;9.18;;
30080;SDS011;16902;50.816;12.828;2022-07-06T04:53:13;10.48;;;8.93;;
30080;SDS011;16902;50.816;12.828;2022-07-06T04:58:17;11.85;;;8.20;;
30080;SDS011;16902;50.816;12.828;2022-07-06T05:03:20;9.07;;;7.00;;
30080;SDS011;16902;50.816;12.828;2022-07-06T05:08:22;10.63;;;6.50;;
30080;SDS011;16902;50.816;12.828;2022-07-06T05:13:26;8.55;;;7.00;;
30080;SDS011;16902;50.816;12.828;2022-07-06T05:18:29;7.70;;;7.00;;
30080;SDS011;16902;50.816;12.828;2022-07-06T05:23:32;6.38;;;5.78;;
30080;SDS011;16902;50.816;12.828;2022-07-06T05:28:35;7.25;;;6.53;;
30080;SDS011;16902;50.816;12.828;2022-07-06T05:33:40;8.65;;;5.85;;
30080;SDS011;16902;50.816;12.828;2022-07-06T05:38:43;8.23;;;7.07;;
30080;SDS011;16902;50.816;12.828;2022-07-06T05:43:45;7.47;;;5.55;;
30080;SDS011;16902;50.816;12.828;2022-07-06T05:48:47;7.03;;;5.15;;
30080;SDS011;16902;50.816;12.828;2022-07-06T05:54:08;6.43;;;5.60;;
30080;SDS011;16902;50.816;12.828;2022-07-06T05:59:11;5.75;;;4.63;;
30080;SDS011;16902;50.816;12.828;2022-07-06T06:04:13;4.50;;;4.10;;
30080;SDS011;16902;50.816;12.828;2022-07-06T06:09:15;6.05;;;4.40;;
30080;SDS011;16902;50.816;12.828;2022-07-06T06:14:17;5.82;;;3.38;;
30080;SDS011;16902;50.816;12.828;2022-07-06T06:19:19;8.95;;;3.55;;
30080;SDS011;16902;50.816;12.828;2022-07-06T06:24:20;4.13;;;3.70;;
30080;SDS011;16902;50.816;12.828;2022-07-06T06:29:25;8.55;;;3.78;;
30080;SDS011;16902;50.816;12.828;2022-07-06T06:34:27;4.43;;;2.60;;
30080;SDS011;16902;50.816;12.828;2022-07-06T06:39:29;4.13;;;2.85;;
30080;SDS011;16902;50.816;12.828;2022-07-06T06:44:31;5.63;;;2.92;;
30080;SDS011;16902;50.816;12.828;2022-07-06T06:49:33;9.00;;;3.15;;
30080;SDS011;16902;50.816;12.828;2022-07-06T06:54:35;3.45;;;2.70;;
30080;SDS011;16902;50.816;12.828;2022-07-06T06:59:37;5.07;;;2.78;;
30080;SDS011;16902;50.816;12.828;2022-07-06T07:04:39;4.82;;;2.53;;
30080;SDS011;16902;50.816;12.828;2022-07-06T07:09:41;4.97;;;2.78;;
30080;SDS011;16902;50.816;12.828;2022-07-06T07:14:43;3.58;;;2.45;;
30080;SDS011;16902;50.816;12.828;2022-07-06T07:19:46;6.35;;;2.72;;
30080;SDS011;16902;50.816;12.828;2022-07-06T07:24:48;5.22;;;2.83;;
30080;SDS011;16902;50.816;12.828;2022-07-06T07:29:49;5.20;;;2.20;;
30080;SDS011;16902;50.816;12.828;2022-07-06T07:34:51;4.75;;;2.40;;
30080;SDS011;16902;50.816;12.828;2022-07-06T07:39:53;4.18;;;2.40;;
30080;SDS011;16902;50.816;12.828;2022-07-06T07:44:55;2.45;;;2.25;;
30080;SDS011;16902;50.816;12.828;2022-07-06T07:49:57;3.03;;;2.20;;
30080;SDS011;16902;50.816;12.828;2022-07-06T07:54:59;4.22;;;2.28;;
30080;SDS011;16902;50.816;12.828;2022-07-06T08:00:21;3.25;;;2.08;;
30080;SDS011;16902;50.816;12.828;2022-07-06T08:05:28;2.33;;;1.75;;
30080;SDS011;16902;50.816;12.828;2022-07-06T08:10:30;2.45;;;1.80;;
30080;SDS011;16902;50.816;12.828;2022-07-06T08:15:52;3.30;;;2.30;;
30080;SDS011;16902;50.816;12.828;2022-07-06T08:20:54;2.80;;;1.80;;
30080;SDS011;16902;50.816;12.828;2022-07-06T08:26:19;3.05;;;1.90;;
30080;SDS011;16902;50.816;12.828;2022-07-06T08:31:21;2.47;;;2.22;;
30080;SDS011;16902;50.816;12.828;2022-07-06T08:36:43;4.60;;;2.10;;
30080;SDS011;16902;50.816;12.828;2022-07-06T08:41:45;4.32;;;2.10;;
30080;SDS011;16902;50.816;12.828;2022-07-06T08:46:49;1.50;;;1.40;;
30080;SDS011;16902;50.816;12.828;2022-07-06T08:51:55;3.13;;;1.60;;
30080;SDS011;16902;50.816;12.828;2022-07-06T08:56:57;2.63;;;1.42;;
30080;SDS011;16902;50.816;12.828;2022-07-06T09:02:00;4.75;;;1.77;;
30080;SDS011;16902;50.816;12.828;2022-07-06T09:07:04;4.38;;;1.67;;
30080;SDS011;16902;50.816;12.828;2022-07-06T09:12:11;3.65;;;1.63;;
30080;SDS011;16902;50.816;12.828;2022-07-06T09:17:14;2.67;;;2.03;;
30080;SDS011;16902;50.816;12.828;2022-07-06T09:22:31;3.53;;;1.85;;
30080;SDS011;16902;50.816;12.828;2022-07-06T09:27:44;6.18;;;2.30;;
30080;SDS011;16902;50.816;12.828;2022-07-06T09:32:50;4.32;;;2.15;;
30080;SDS011;16902;50.816;12.828;2022-07-06T09:38:00;3.72;;;2.35;;
30080;SDS011;16902;50.816;12.828;2022-07-06T09:53:14;3.85;;;2.15;;
30080;SDS011;16902;50.816;12.828;2022-07-06T09:58:17;2.97;;;2.15;;
30080;SDS011;16902;50.816;12.828;2022-07-06T10:03:33;4.25;;;2.00;;
30080;SDS011;16902;50.816;12.828;2022-07-06T10:08:35;2.13;;;1.98;;
30080;SDS011;16902;50.816;12.828;2022-07-06T10:13:38;3.00;;;2.65;;
30080;SDS011;16902;50.816;12.828;2022-07-06T10:18:40;5.35;;;3.28;;
30080;SDS011;16902;50.816;12.828;2022-07-06T10:23:43;3.47;;;3.05;;
30080;SDS011;16902;50.816;12.828;2022-07-06T10:28:45;6.13;;;3.00;;
30080;SDS011;16902;50.816;12.828;2022-07-06T10:33:48;3.80;;;3.42;;
30080;SDS011;16902;50.816;12.828;2022-07-06T10:38:51;5.28;;;2.60;;
30080;SDS011;16902;50.816;12.828;2022-07-06T10:43:54;3.72;;;2.58;;
30080;SDS011;16902;50.816;12.828;2022-07-06T10:48:58;4.85;;;2.50;;
30080;SDS011;16902;50.816;12.828;2022-07-06T10:54:00;4.22;;;3.13;;
30080;SDS011;16902;50.816;12.828;2022-07-06T11:04:12;8.13;;;2.88;;
30080;SDS011;16902;50.816;12.828;2022-07-06T11:09:16;4.75;;;2.70;;
30080;SDS011;16902;50.816;12.828;2022-07-06T11:14:18;5.53;;;3.03;;
30080;SDS011;16902;50.816;12.828;2022-07-06T11:19:23;4.85;;;2.70;;
30080;SDS011;16902;50.816;12.828;2022-07-06T11:24:26;2.85;;;2.35;;
30080;SDS011;16902;50.816;12.828;2022-07-06T11:29:29;2.30;;;2.10;;
30080;SDS011;16902;50.816;12.828;2022-07-06T11:34:33;4.25;;;2.13;;
30080;SDS011;16902;50.816;12.828;2022-07-06T11:39:36;1.83;;;1.73;;
30080;SDS011;16902;50.816;12.828;2022-07-06T11:44:42;2.58;;;1.67;;
30080;SDS011;16902;50.816;12.828;2022-07-06T11:49:49;2.03;;;1.80;;
30080;SDS011;16902;50.816;12.828;2022-07-06T11:54:56;2.55;;;1.90;;
30080;SDS011;16902;50.816;12.828;2022-07-06T11:59:59;2.80;;;1.60;;
30080;SDS011;16902;50.816;12.828;2022-07-06T12:05:01;2.63;;;1.75;;
30080;SDS011;16902;50.816;12.828;2022-07-06T12:10:03;2.33;;;1.88;;
30080;SDS011;16902;50.816;12.828;2022-07-06T12:15:06;4.20;;;1.40;;
30080;SDS011;16902;50.816;12.828;2022-07-06T12:20:08;1.60;;;1.20;;
30080;SDS011;16902;50.816;12.828;2022-07-06T12:25:11;2.75;;;1.17;;
30080;SDS011;16902;50.816;12.828;2022-07-06T12:30:13;1.85;;;1.30;;
30080;SDS011;16902;50.816;12.828;2022-07-06T12:35:23;1.75;;;1.20;;
30080;SDS011;16902;50.816;12.828;2022-07-06T12:40:25;1.75;;;1.20;;
30080;SDS011;16902;50.816;12.828;2022-07-06T12:45:31;2.22;;;1.10;;
30080;SDS011;16902;50.816;12.828;2022-07-06T12:50:37;3.22;;;1.83;;
30080;SDS011;16902;50.816;12.828;2022-07-06T12:55:40;3.28;;;1.40;;
30080;SDS011;16902;50.816;12.828;2022-07-06T13:00:45;2.17;;;1.30;;
30080;SDS011;16902;50.816;12.828;2022-07-06T13:05:51;1.30;;;1.20;;
30080;SDS011;16902;50.816;12.828;2022-07-06T13:10:53;1.80;;;1.27;;
30080;SDS011;16902;50.816;12.828;2022-07-06T13:15:55;1.92;;;1.30;;
30080;SDS011;16902;50.816;12.828;2022-07-06T13:20:57;3.15;;;1.20;;
30080;SDS011;16902;50.816;12.828;2022-07-06T13:25:59;3.50;;;1.30;;
30080;SDS011;16902;50.816;12.828;2022-07-06T13:31:01;1.48;;;1.30;;
30080;SDS011;16902;50.816;12.828;2022-07-06T13:36:08;2.00;;;1.45;;
30080;SDS011;16902;50.816;12.828;2022-07-06T13:41:11;1.25;;;0.90;;
30080;SDS011;16902;50.816;12.828;2022-07-06T13:46:13;2.30;;;1.10;;
30080;SDS011;16902;50.816;12.828;2022-07-06T13:51:15;2.95;;;1.15;;
30080;SDS011;16902;50.816;12.828;2022-07-06T13:56:17;2.17;;;1.30;;
30080;SDS011;16902;50.816;12.828;2022-07-06T14:01:19;1.42;;;1.00;;
30080;SDS011;16902;50.816;12.828;2022-07-06T14:06:28;7.10;;;1.73;;
30080;SDS011;16902;50.816;12.828;2022-07-06T14:11:30;1.42;;;1.30;;
30080;SDS011;16902;50.816;12.828;2022-07-06T14:16:33;3.30;;;1.50;;
30080;SDS011;16902;50.816;12.828;2022-07-06T14:21:36;4.13;;;1.23;;
30080;SDS011;16902;50.816;12.828;2022-07-06T14:26:38;2.30;;;0.90;;
30080;SDS011;16902;50.816;12.828;2022-07-06T14:31:40;1.48;;;0.98;;
30080;SDS011;16902;50.816;12.828;2022-07-06T14:36:42;2.45;;;1.08;;
30080;SDS011;16902;50.816;12.828;2022-07-06T14:41:44;2.58;;;0.90;;
30080;SDS011;16902;50.816;12.828;2022-07-06T14:46:46;2.55;;;1.00;;
30080;SDS011;16902;50.816;12.828;2022-07-06T14:51:48;1.20;;;0.70;;
30080;SDS011;16902;50.816;12.828;2022-07-06T14:56:50;1.95;;;1.10;;
30080;SDS011;16902;50.816;12.828;2022-07-06T15:01:52;1.45;;;1.08;;
30080;SDS011;16902;50.816;12.828;2022-07-06T15:06:55;2.63;;;1.02;;
30080;SDS011;16902;50.816;12.828;2022-07-06T15:11:57;1.85;;;1.10;;
30080;SDS011;16902;50.816;12.828;2022-07-06T15:16:59;1.35;;;0.85;;
30080;SDS011;16902;50.816;12.828;2022-07-06T15:22:02;1.77;;;0.90;;
30080;SDS011;16902;50.816;12.828;2022-07-06T15:27:04;1.35;;;1.00;;
30080;SDS011;16902;50.816;12.828;2022-07-06T15:32:07;2.88;;;0.80;;
30080;SDS011;16902;50.816;12.828;2022-07-06T15:37:09;1.98;;;0.82;;
30080;SDS011;16902;50.816;12.828;2022-07-06T15:42:11;1.40;;;0.90;;
30080;SDS011;16902;50.816;12.828;2022-07-06T15:47:13;1.58;;;0.98;;
30080;SDS011;16902;50.816;12.828;2022-07-06T15:52:15;2.22;;;1.58;;
30080;SDS011;16902;50.816;12.828;2022-07-06T15:57:17;1.30;;;0.90;;
30080;SDS011;16902;50.816;12.828;2022-07-06T16:02:19;1.52;;;1.42;;
30080;SDS011;16902;50.816;12.828;2022-07-06T16:07:21;1.88;;;1.30;;
30080;SDS011;16902;50.816;12.828;2022-07-06T16:12:43;6.43;;;2.10;;
30080;SDS011;16902;50.816;12.828;2022-07-06T16:17:45;2.00;;;1.70;;
30080;SDS011;16902;50.816;12.828;2022-07-06T16:22:48;2.35;;;1.90;;
30080;SDS011;16902;50.816;12.828;2022-07-06T16:27:49;3.55;;;1.40;;
30080;SDS011;16902;50.816;12.828;2022-07-06T16:32:52;2.78;;;1.33;;
30080;SDS011;16902;50.816;12.828;2022-07-06T16:37:55;1.60;;;1.30;;
30080;SDS011;16902;50.816;12.828;2022-07-06T16:42:57;2.72;;;1.50;;
30080;SDS011;16902;50.816;12.828;2022-07-06T16:47:59;1.98;;;1.23;;
30080;SDS011;16902;50.816;12.828;2022-07-06T16:53:01;3.63;;;1.20;;
30080;SDS011;16902;50.816;12.828;2022-07-06T16:58:03;1.60;;;1.30;;
30080;SDS011;16902;50.816;12.828;2022-07-06T17:03:05;1.15;;;1.10;;
30080;SDS011;16902;50.816;12.828;2022-07-06T17:08:07;1.98;;;0.93;;
30080;SDS011;16902;50.816;12.828;2022-07-06T17:13:09;2.92;;;1.23;;
30080;SDS011;16902;50.816;12.828;2022-07-06T17:18:11;1.65;;;1.00;;
30080;SDS011;16902;50.816;12.828;2022-07-06T17:23:14;1.23;;;1.10;;
30080;SDS011;16902;50.816;12.828;2022-07-06T17:28:16;1.30;;;0.98;;
30080;SDS011;16902;50.816;12.828;2022-07-06T17:33:18;2.25;;;0.98;;
30080;SDS011;16902;50.816;12.828;2022-07-06T17:38:20;1.63;;;1.10;;
30080;SDS011;16902;50.816;12.828;2022-07-06T17:43:23;1.98;;;1.00;;
30080;SDS011;16902;50.816;12.828;2022-07-06T17:48:25;2.03;;;1.05;;
30080;SDS011;16902;50.816;12.828;2022-07-06T17:53:27;1.98;;;0.93;;
30080;SDS011;16902;50.816;12.828;2022-07-06T17:58:30;2.00;;;1.30;;
30080;SDS011;16902;50.816;12.828;2022-07-06T18:03:32;1.83;;;1.00;;
30080;SDS011;16902;50.816;12.828;2022-07-06T18:08:33;2.75;;;1.23;;
30080;SDS011;16902;50.816;12.828;2022-07-06T18:13:35;1.88;;;1.20;;
30080;SDS011;16902;50.816;12.828;2022-07-06T18:18:37;1.48;;;0.93;;
30080;SDS011;16902;50.816;12.828;2022-07-06T18:23:39;1.33;;;1.20;;
30080;SDS011;16902;50.816;12.828;2022-07-06T18:28:41;2.65;;;1.23;;
30080;SDS011;16902;50.816;12.828;2022-07-06T18:33:43;3.72;;;1.00;;
30080;SDS011;16902;50.816;12.828;2022-07-06T18:38:45;3.90;;;1.88;;
30080;SDS011;16902;50.816;12.828;2022-07-06T18:43:47;1.50;;;1.10;;
30080;SDS011;16902;50.816;12.828;2022-07-06T18:48:49;3.38;;;1.35;;
30080;SDS011;16902;50.816;12.828;2022-07-06T18:53:51;2.53;;;1.40;;
30080;SDS011;16902;50.816;12.828;2022-07-06T18:58:56;1.83;;;1.33;;
30080;SDS011;16902;50.816;12.828;2022-07-06T19:03:58;2.33;;;1.20;;
30080;SDS011;16902;50.816;12.828;2022-07-06T19:09:00;2.30;;;1.20;;
30080;SDS011;16902;50.816;12.828;2022-07-06T19:14:02;1.73;;;1.10;;
30080;SDS011;16902;50.816;12.828;2022-07-06T19:19:05;2.15;;;1.20;;
30080;SDS011;16902;50.816;12.828;2022-07-06T19:24:08;1.35;;;1.25;;
30080;SDS011;16902;50.816;12.828;2022-07-06T19:29:12;4.10;;;1.58;;
30080;SDS011;16902;50.816;12.828;2022-07-06T19:34:14;1.17;;;1.08;;
30080;SDS011;16902;50.816;12.828;2022-07-06T19:39:16;3.08;;;1.35;;
30080;SDS011;16902;50.816;12.828;2022-07-06T19:44:18;3.83;;;1.30;;
30080;SDS011;16902;50.816;12.828;2022-07-06T19:49:20;4.88;;;1.40;;
30080;SDS011;16902;50.816;12.828;2022-07-06T19:54:22;3.05;;;1.70;;
30080;SDS011;16902;50.816;12.828;2022-07-06T19:59:24;2.70;;;1.50;;
30080;SDS011;16902;50.816;12.828;2022-07-06T20:04:26;1.30;;;1.20;;
30080;SDS011;16902;50.816;12.828;2022-07-06T20:09:28;3.28;;;1.23;;
30080;SDS011;16902;50.816;12.828;2022-07-06T20:14:30;2.75;;;1.58;;
30080;SDS011;16902;50.816;12.828;2022-07-06T20:19:32;2.58;;;1.70;;
30080;SDS011;16902;50.816;12.828;2022-07-06T20:24:34;3.92;;;1.55;;
30080;SDS011;16902;50.816;12.828;2022-07-06T20:29:36;3.15;;;1.75;;
30080;SDS011;16902;50.816;12.828;2022-07-06T20:34:37;4.28;;;1.60;;
30080;SDS011;16902;50.816;12.828;2022-07-06T20:39:39;3.35;;;1.27;;
30080;SDS011;16902;50.816;12.828;2022-07-06T20:44:41;2.33;;;1.60;;
30080;SDS011;16902;50.816;12.828;2022-07-06T20:49:45;2.42;;;1.50;;
30080;SDS011;16902;50.816;12.828;2022-07-06T20:54:47;4.03;;;1.67;;
30080;SDS011;16902;50.816;12.828;2022-07-06T20:59:50;5.72;;;1.80;;
30080;SDS011;16902;50.816;12.828;2022-07-06T21:04:52;5.70;;;3.10;;
30080;SDS011;16902;50.816;12.828;2022-07-06T21:09:55;2.45;;;2.25;;
30080;SDS011;16902;50.816;12.828;2022-07-06T21:14:57;3.15;;;2.20;;
30080;SDS011;16902;50.816;12.828;2022-07-06T21:19:59;3.35;;;1.75;;
30080;SDS011;16902;50.816;12.828;2022-07-06T21:25:01;2.35;;;1.73;;
30080;SDS011;16902;50.816;12.828;2022-07-06T21:30:03;2.28;;;1.40;;
30080;SDS011;16902;50.816;12.828;2022-07-06T21:35:06;2.75;;;2.00;;
30080;SDS011;16902;50.816;12.828;2022-07-06T21:40:08;3.50;;;1.65;;
30080;SDS011;16902;50.816;12.828;2022-07-06T21:45:10;2.40;;;1.75;;
30080;SDS011;16902;50.816;12.828;2022-07-06T21:50:12;4.80;;;2.20;;
30080;SDS011;16902;50.816;12.828;2022-07-06T21:55:14;2.85;;;2.10;;
30080;SDS011;16902;50.816;12.828;2022-07-06T22:00:16;2.53;;;2.15;;
30080;SDS011;16902;50.816;12.828;2022-07-06T22:05:18;3.45;;;2.40;;
30080;SDS011;16902;50.816;12.828;2022-07-06T22:10:21;2.65;;;1.88;;
30080;SDS011;16902;50.816;12.828;2022-07-06T22:15:23;4.63;;;2.80;;
30080;SDS011;16902;50.816;12.828;2022-07-06T22:20:25;4.00;;;2.22;;
30080;SDS011;16902;50.816;12.828;2022-07-06T22:25:27;1.85;;;1.73;;
30080;SDS011;16902;50.816;12.828;2022-07-06T22:30:28;1.98;;;1.77;;
30080;SDS011;16902;50.816;12.828;2022-07-06T22:35:30;2.22;;;1.85;;
30080;SDS011;16902;50.816;12.828;2022-07-06T22:40:32;1.80;;;1.55;;
30080;SDS011;16902;50.816;12.828;2022-07-06T22:45:53;2.63;;;1.50;;
30080;SDS011;16902;50.816;12.828;2022-07-06T22:50:55;5.53;;;1.65;;
30080;SDS011;16902;50.816;12.828;2022-07-06T22:55:58;1.85;;;1.60;;
30080;SDS011;16902;50.816;12.828;2022-07-06T23:01:08;1.77;;;1.67;;
30080;SDS011;16902;50.816;12.828;2022-07-06T23:06:10;5.50;;;1.70;;
30080;SDS011;16902;50.816;12.828;2022-07-06T23:11:13;3.42;;;1.70;;
30080;SDS011;16902;50.816;12.828;2022-07-06T23:16:16;4.30;;;1.88;;
30080;SDS011;16902;50.816;12.828;2022-07-06T23:21:18;1.92;;;1.70;;
30080;SDS011;16902;50.816;12.828;2022-07-06T23:26:25;2.67;;;1.75;;
30080;SDS011;16902;50.816;12.828;2022-07-06T23:31:27;4.30;;;1.80;;
30080;SDS011;16902;50.816;12.828;2022-07-06T23:36:29;2.45;;;1.83;;
30080;SDS011;16902;50.816;12.828;2022-07-06T23:41:31;2.63;;;1.73;;
30080;SDS011;16902;50.816;12.828;2022-07-06T23:46:33;2.35;;;1.70;;
30080;SDS011;16902;50.816;12.828;2022-07-06T23:51:35;1.55;;;1.45;;
30080;SDS011;16902;50.816;12.828;2022-07-06T23:56:37;1.60;;;1.50;;
